createdAt,value
2022-12-12T00:00:51.619Z,143177.88
2022-12-12T00:03:18.700Z,143179.06
2022-12-12T00:05:45.792Z,143171.81
2022-12-12T00:08:12.660Z,143163.38
2022-12-12T00:10:39.514Z,143165.78
2022-12-12T00:13:06.315Z,143167.00
2022-12-12T00:15:33.231Z,143179.06
2022-12-12T00:18:00.127Z,143175.44
2022-12-12T00:20:27.014Z,143181.44
2022-12-12T00:22:53.837Z,143176.63
2022-12-12T00:25:20.693Z,143171.81
2022-12-12T00:27:47.512Z,143167.00
2022-12-12T00:30:14.318Z,143197.16
2022-12-12T00:32:41.182Z,143193.53
2022-12-12T00:35:08.179Z,143191.09
2022-12-12T00:37:35.211Z,143203.16
2022-12-12T00:40:02.149Z,143191.09
2022-12-12T00:42:29.013Z,143180.25
2022-12-12T00:44:55.957Z,143175.44
2022-12-12T00:47:22.801Z,143179.06
2022-12-12T00:49:49.622Z,143168.19
2022-12-12T00:52:16.581Z,143174.25
2022-12-12T00:54:43.391Z,143171.81
2022-12-12T00:57:10.248Z,143160.97
2022-12-12T00:59:37.079Z,143164.59
2022-12-12T01:02:04.011Z,143162.16
2022-12-12T01:04:30.874Z,143162.16
2022-12-12T01:06:57.717Z,143162.16
2022-12-12T01:09:24.573Z,143159.78
2022-12-12T01:11:51.402Z,143167.00
2022-12-12T01:14:18.229Z,143167.00
2022-12-12T01:16:45.170Z,143150.09
2022-12-12T01:19:11.985Z,143157.34
2022-12-12T01:21:38.964Z,143154.91
2022-12-12T01:24:05.977Z,143164.59
2022-12-12T01:26:32.789Z,143167.00
2022-12-12T01:28:59.628Z,143174.25
2022-12-12T01:31:26.533Z,143171.81
2022-12-12T01:33:53.384Z,143180.25
2022-12-12T01:36:21.829Z,143168.19
2022-12-12T01:38:50.300Z,143168.19
2022-12-12T01:41:17.660Z,143162.16
2022-12-12T01:43:45.074Z,143157.34
2022-12-12T01:46:44.651Z,143157.34
2022-12-12T01:49:14.637Z,143175.44
2022-12-12T01:51:41.998Z,143167.00
2022-12-12T01:54:11.779Z,143169.41
2022-12-12T01:56:39.572Z,143162.16
2022-12-12T01:59:07.752Z,143171.81
2022-12-12T02:01:34.842Z,143179.06
2022-12-12T02:04:02.215Z,143177.88
2022-12-12T02:06:29.544Z,143181.44
2022-12-12T02:08:59.286Z,143179.06
2022-12-12T02:11:30.381Z,143180.25
2022-12-12T02:13:57.800Z,143171.81
2022-12-12T02:16:43.369Z,143171.81
2022-12-12T02:19:36.649Z,143170.63
2022-12-12T02:22:08.424Z,143169.41
2022-12-12T02:24:38.423Z,143152.53
2022-12-12T02:27:11.117Z,143154.91
2022-12-12T02:29:56.301Z,143150.09
2022-12-12T02:32:43.716Z,143145.28
2022-12-12T02:35:13.659Z,143147.72
2022-12-12T02:37:55.394Z,143162.16
2022-12-12T02:40:37.446Z,143164.59
2022-12-12T02:43:10.417Z,143183.88
2022-12-12T02:45:39.727Z,143176.63
2022-12-12T02:48:12.273Z,143179.06
2022-12-12T02:50:39.906Z,143169.41
2022-12-12T02:53:06.833Z,143176.63
2022-12-12T02:55:36.441Z,143177.88
2022-12-12T02:58:04.798Z,143179.06
2022-12-12T03:00:36.666Z,143179.06
2022-12-12T03:03:22.375Z,143188.69
2022-12-12T03:06:20.855Z,143181.44
2022-12-12T03:08:57.122Z,143154.91
2022-12-12T03:11:50.056Z,143153.72
2022-12-12T03:14:37.151Z,143152.53
2022-12-12T03:17:06.702Z,143140.47
2022-12-12T03:19:43.444Z,143142.91
2022-12-12T03:22:16.159Z,143141.72
2022-12-12T03:24:42.938Z,143156.16
2022-12-12T03:27:25.845Z,143174.25
2022-12-12T03:29:58.623Z,143174.25
2022-12-12T03:32:28.192Z,143160.97
2022-12-12T03:35:00.401Z,143162.16
2022-12-12T03:37:31.927Z,143157.34
2022-12-12T03:40:03.690Z,143158.53
2022-12-12T03:42:35.416Z,143177.88
2022-12-12T03:45:07.006Z,143187.50
2022-12-12T03:47:39.645Z,143198.34
2022-12-12T03:50:11.537Z,143193.53
2022-12-12T03:52:46.762Z,143199.53
2022-12-12T03:55:20.404Z,143200.78
2022-12-12T03:57:51.548Z,143198.34
2022-12-12T04:00:18.504Z,143186.28
2022-12-12T04:02:51.725Z,143176.63
2022-12-12T04:06:03.443Z,143177.88
2022-12-12T04:08:30.522Z,143192.31
2022-12-12T04:11:22.489Z,143191.09
2022-12-12T04:14:01.408Z,143201.97
2022-12-12T04:16:32.739Z,143192.31
2022-12-12T04:19:02.952Z,143203.16
2022-12-12T04:21:48.625Z,143201.97
2022-12-12T04:24:18.431Z,143220.03
2022-12-12T04:26:57.120Z,143210.41
2022-12-12T04:29:42.555Z,143216.41
2022-12-12T04:32:20.141Z,143217.63
2022-12-12T04:35:01.822Z,143222.44
2022-12-12T04:37:31.629Z,143232.13
2022-12-12T04:40:00.386Z,143217.63
2022-12-12T04:42:29.567Z,143216.41
2022-12-12T04:45:01.390Z,143220.03
2022-12-12T04:47:30.663Z,143205.59
2022-12-12T04:49:58.853Z,143197.16
2022-12-12T04:52:26.603Z,143209.16
2022-12-12T04:55:11.967Z,143221.25
2022-12-12T04:57:44.229Z,143218.84
2022-12-12T05:00:12.596Z,143228.50
2022-12-12T05:02:43.900Z,143227.25
2022-12-12T05:05:29.661Z,143227.25
2022-12-12T05:07:58.481Z,143199.53
2022-12-12T05:10:25.422Z,143222.44
2022-12-12T05:12:56.589Z,143220.03
2022-12-12T05:15:23.794Z,143217.63
2022-12-12T05:17:57.418Z,143198.34
2022-12-12T05:20:24.518Z,143187.50
2022-12-12T05:22:51.349Z,143203.16
2022-12-12T05:25:18.169Z,143203.16
2022-12-12T05:27:45.050Z,143203.16
2022-12-12T05:30:12.354Z,143193.53
2022-12-12T05:32:39.245Z,143207.97
2022-12-12T05:35:07.014Z,143209.16
2022-12-12T05:37:33.846Z,143205.59
2022-12-12T05:40:00.724Z,143207.97
2022-12-12T05:42:27.560Z,143226.06
2022-12-12T05:44:54.588Z,143227.25
2022-12-12T05:47:21.372Z,143236.94
2022-12-12T05:49:48.247Z,143236.94
2022-12-12T05:52:15.187Z,143224.88
2022-12-12T05:54:42.076Z,143209.16
2022-12-12T05:57:09.142Z,143203.16
2022-12-12T05:59:36.034Z,143210.41
2022-12-12T06:02:03.076Z,143223.66
2022-12-12T06:04:30.774Z,143236.94
2022-12-12T06:06:57.742Z,143226.06
2022-12-12T06:09:24.568Z,143224.88
2022-12-12T06:11:51.387Z,143207.97
2022-12-12T06:14:18.231Z,143186.28
2022-12-12T06:16:45.090Z,143204.34
2022-12-12T06:19:11.893Z,143188.69
2022-12-12T06:21:38.717Z,143215.22
2022-12-12T06:24:06.239Z,143218.84
2022-12-12T06:26:33.093Z,143220.03
2022-12-12T06:28:59.956Z,143214.03
2022-12-12T06:31:27.784Z,143224.88
2022-12-12T06:33:54.642Z,143201.97
2022-12-12T06:36:25.422Z,143222.44
2022-12-12T06:38:55.880Z,143227.25
2022-12-12T06:41:23.765Z,143221.25
2022-12-12T06:43:50.675Z,143232.13
2022-12-12T06:46:19.325Z,143238.13
2022-12-12T06:48:46.178Z,143252.59
2022-12-12T06:51:18.022Z,143255.03
2022-12-12T06:53:44.958Z,143258.59
2022-12-12T06:56:18.761Z,143248.97
2022-12-12T06:58:45.569Z,143257.41
2022-12-12T07:01:13.912Z,143252.59
2022-12-12T07:03:40.856Z,143263.44
2022-12-12T07:06:07.689Z,143281.50
2022-12-12T07:08:35.058Z,143268.28
2022-12-12T07:11:05.762Z,143267.06
2022-12-12T07:13:32.749Z,143277.94
2022-12-12T07:15:59.623Z,143274.31
2022-12-12T07:18:26.475Z,143279.13
2022-12-12T07:20:53.318Z,143279.13
2022-12-12T07:23:20.158Z,143268.28
2022-12-12T07:25:46.984Z,143275.50
2022-12-12T07:28:14.501Z,143287.56
2022-12-12T07:30:42.804Z,143280.31
2022-12-12T07:33:09.747Z,143275.50
2022-12-12T07:35:36.692Z,143288.78
2022-12-12T07:38:03.925Z,143279.13
2022-12-12T07:40:30.745Z,143276.69
2022-12-12T07:42:58.725Z,143280.31
2022-12-12T07:45:25.765Z,143294.78
2022-12-12T07:47:53.148Z,143299.59
2022-12-12T07:50:20.373Z,143298.41
2022-12-12T07:52:47.204Z,143297.22
2022-12-12T07:55:15.753Z,143311.69
2022-12-12T07:57:42.793Z,143304.41
2022-12-12T08:00:10.744Z,143318.94
2022-12-12T08:02:40.767Z,143309.28
2022-12-12T08:05:07.835Z,143314.09
2022-12-12T08:07:34.734Z,143311.69
2022-12-12T08:10:01.561Z,143299.59
2022-12-12T08:12:29.093Z,143318.94
2022-12-12T08:14:56.077Z,143169.41
2022-12-12T08:17:22.971Z,143303.22
2022-12-12T08:19:49.778Z,143321.31
2022-12-12T08:22:16.609Z,143318.94
2022-12-12T08:24:43.437Z,143323.75
2022-12-12T08:27:15.592Z,143311.69
2022-12-12T08:29:43.476Z,143317.69
2022-12-12T08:32:10.295Z,143317.69
2022-12-12T08:34:37.411Z,143318.94
2022-12-12T08:37:04.673Z,143311.69
2022-12-12T08:39:31.750Z,143316.50
2022-12-12T08:41:58.762Z,143328.56
2022-12-12T08:44:25.804Z,143311.69
2022-12-12T08:46:52.901Z,143318.94
2022-12-12T08:49:19.732Z,143338.22
2022-12-12T08:51:46.570Z,143345.47
2022-12-12T08:54:13.501Z,143341.84
2022-12-12T08:56:40.784Z,143357.50
2022-12-12T08:59:07.694Z,143374.41
2022-12-12T09:01:34.674Z,143374.41
2022-12-12T09:04:01.761Z,143369.59
2022-12-12T09:06:28.586Z,143359.94
2022-12-12T09:08:56.847Z,143364.75
2022-12-12T09:11:24.028Z,143402.13
2022-12-12T09:13:51.767Z,143379.22
2022-12-12T09:16:19.679Z,143391.31
2022-12-12T09:18:49.394Z,143384.03
2022-12-12T09:21:16.846Z,143405.78
2022-12-12T09:23:43.791Z,143437.13
2022-12-12T09:26:10.957Z,143445.59
2022-12-12T09:28:38.610Z,143444.34
2022-12-12T09:31:07.789Z,143435.94
2022-12-12T09:33:35.113Z,143441.97
2022-12-12T09:36:03.786Z,143458.88
2022-12-12T09:38:30.693Z,143454.03
2022-12-12T09:40:57.673Z,143461.25
2022-12-12T09:43:31.104Z,143446.78
2022-12-12T09:45:59.144Z,143476.97
2022-12-12T09:48:30.917Z,143480.56
2022-12-12T09:50:57.810Z,143497.47
2022-12-12T09:53:25.422Z,143497.47
2022-12-12T09:56:18.166Z,143525.22
2022-12-12T09:58:57.158Z,143467.28
2022-12-12T10:01:32.483Z,143492.63
2022-12-12T10:04:02.275Z,143492.63
2022-12-12T10:06:38.120Z,143493.81
2022-12-12T10:09:24.071Z,143487.81
2022-12-12T10:11:54.728Z,143532.47
2022-12-12T10:14:21.697Z,143555.41
2022-12-12T10:16:55.710Z,143591.63
2022-12-12T10:19:29.526Z,143574.69
2022-12-12T10:21:58.318Z,143560.22
2022-12-12T10:24:42.504Z,143568.69
2022-12-12T10:27:10.439Z,143546.94
2022-12-12T10:29:41.542Z,143543.31
2022-12-12T10:32:29.018Z,143550.56
2022-12-12T10:35:01.854Z,143551.75
2022-12-12T10:37:29.070Z,143544.56
2022-12-12T10:39:58.653Z,143580.75
2022-12-12T10:42:33.134Z,143572.31
2022-12-12T10:44:59.956Z,143581.97
2022-12-12T10:47:26.854Z,143591.63
2022-12-12T10:50:12.931Z,143590.41
2022-12-12T10:52:40.280Z,143591.63
2022-12-12T10:55:36.651Z,143604.88
2022-12-12T10:58:04.792Z,143601.25
2022-12-12T11:00:33.398Z,143627.81
2022-12-12T11:03:10.358Z,143623.00
2022-12-12T11:05:39.182Z,143644.75
2022-12-12T11:08:26.433Z,143649.56
2022-12-12T11:11:04.966Z,143664.03
2022-12-12T11:13:37.987Z,143670.06
2022-12-12T11:16:13.641Z,143688.19
2022-12-12T11:18:40.920Z,143717.19
2022-12-12T11:21:09.375Z,143717.19
2022-12-12T11:23:39.301Z,143715.94
2022-12-12T11:26:12.157Z,143714.75
2022-12-12T11:28:40.521Z,143705.09
2022-12-12T11:31:09.798Z,143671.31
2022-12-12T11:33:43.215Z,143708.72
2022-12-12T11:36:14.860Z,143678.53
2022-12-12T11:38:46.145Z,143660.41
2022-12-12T11:41:12.963Z,143661.63
2022-12-12T11:43:49.061Z,143677.34
2022-12-12T11:46:15.893Z,143695.44
2022-12-12T11:48:44.348Z,143758.25
2022-12-12T11:51:11.225Z,143799.31
2022-12-12T11:53:39.896Z,143891.13
2022-12-12T11:56:16.829Z,143933.41
2022-12-12T11:58:49.714Z,143958.81
2022-12-12T12:01:21.824Z,143934.66
2022-12-12T12:03:51.629Z,143944.31
2022-12-12T12:06:18.421Z,143932.22
2022-12-12T12:08:45.239Z,143966.06
2022-12-12T12:11:27.398Z,144060.34
2022-12-12T12:14:02.067Z,144141.34
2022-12-12T12:16:32.198Z,144050.66
2022-12-12T12:18:59.054Z,144132.88
2022-12-12T12:21:25.949Z,144210.28
2022-12-12T12:23:59.578Z,144190.94
2022-12-12T12:26:45.143Z,144198.22
2022-12-12T12:29:29.694Z,144136.50
2022-12-12T12:32:08.731Z,144103.88
2022-12-12T12:34:38.295Z,144071.25
2022-12-12T12:37:05.082Z,144070.03
2022-12-12T12:39:45.764Z,143974.50
2022-12-12T12:42:19.025Z,143859.72
2022-12-12T12:44:58.096Z,143841.59
2022-12-12T12:47:36.904Z,143763.09
2022-12-12T12:50:24.253Z,143750.97
2022-12-12T12:52:53.864Z,143719.59
2022-12-12T12:55:23.778Z,143729.25
2022-12-12T12:57:51.381Z,143719.59
2022-12-12T13:00:19.553Z,143741.34
2022-12-12T13:03:01.096Z,143731.69
2022-12-12T13:05:45.297Z,143748.59
2022-12-12T13:08:12.862Z,143755.81
2022-12-12T13:10:44.273Z,143736.50
2022-12-12T13:13:23.232Z,143755.81
2022-12-12T13:16:16.299Z,143784.84
2022-12-12T13:18:45.413Z,143908.06
2022-12-12T13:21:41.874Z,143934.66
2022-12-12T13:24:19.365Z,143879.03
2022-12-12T13:27:00.381Z,143889.94
2022-12-12T13:29:27.197Z,143881.47
2022-12-12T13:32:08.342Z,143916.53
2022-12-12T13:34:38.400Z,143929.81
2022-12-12T13:37:06.161Z,143946.69
2022-12-12T13:39:34.369Z,144002.34
2022-12-12T13:42:02.617Z,144018.03
2022-12-12T13:44:40.628Z,144026.50
2022-12-12T13:47:19.414Z,144041.00
2022-12-12T13:49:50.358Z,143997.50
2022-12-12T13:52:24.919Z,144057.94
2022-12-12T13:55:09.219Z,144082.09
2022-12-12T13:57:36.063Z,144048.28
2022-12-12T14:00:02.882Z,144032.53
2022-12-12T14:02:44.094Z,143980.56
2022-12-12T14:05:25.915Z,143921.34
2022-12-12T14:07:56.425Z,143925.00
2022-12-12T14:10:26.275Z,143916.53
2022-12-12T14:12:53.743Z,143920.13
2022-12-12T14:15:23.089Z,143908.06
2022-12-12T14:17:52.708Z,143925.00
2022-12-12T14:20:27.766Z,143893.56
2022-12-12T14:23:12.794Z,143985.41
2022-12-12T14:25:40.680Z,144021.66
2022-12-12T14:28:15.820Z,143958.81
2022-12-12T14:31:15.481Z,143935.84
2022-12-12T14:33:54.334Z,143879.03
2022-12-12T14:36:30.000Z,143888.75
2022-12-12T14:39:00.150Z,143862.16
2022-12-12T14:41:32.239Z,143837.94
2022-12-12T14:44:36.206Z,143802.94
2022-12-12T14:46:48.036Z,143753.44
2022-12-12T14:49:16.129Z,143746.16
2022-12-12T14:51:44.039Z,143731.69
2022-12-12T14:54:31.117Z,143735.31
2022-12-12T14:56:59.008Z,143734.06
2022-12-12T14:59:31.397Z,143688.19
2022-12-12T15:02:04.984Z,143671.31
2022-12-12T15:04:34.044Z,143664.03
2022-12-12T15:07:02.873Z,143649.56
2022-12-12T15:09:31.176Z,143637.47
2022-12-12T15:12:10.463Z,143603.69
2022-12-12T15:14:38.339Z,143596.44
2022-12-12T15:17:12.894Z,143586.78
2022-12-12T15:19:44.852Z,143572.31
2022-12-12T15:22:18.394Z,143575.91
2022-12-12T15:24:45.615Z,143562.66
2022-12-12T15:27:16.939Z,143550.56
2022-12-12T15:29:45.252Z,143551.75
2022-12-12T15:32:17.689Z,143534.84
2022-12-12T15:34:46.527Z,143521.56
2022-12-12T15:37:39.634Z,143502.28
2022-12-12T15:40:06.418Z,143493.81
2022-12-12T15:42:33.440Z,143480.56
2022-12-12T15:45:01.073Z,143441.97
2022-12-12T15:47:28.074Z,143434.72
2022-12-12T15:49:54.956Z,143404.56
2022-12-12T15:52:25.643Z,143371.97
2022-12-12T15:54:54.692Z,143352.69
2022-12-12T15:57:26.375Z,143350.28
2022-12-12T15:59:55.284Z,143323.75
2022-12-12T16:02:29.652Z,143296.03
2022-12-12T16:05:15.321Z,143288.78
2022-12-12T16:07:42.198Z,143285.13
2022-12-12T16:10:12.264Z,143277.94
2022-12-12T16:13:14.675Z,143273.09
2022-12-12T16:15:41.608Z,143277.94
2022-12-12T16:18:14.529Z,143298.41
2022-12-12T16:20:50.148Z,143297.22
2022-12-12T16:23:19.874Z,143321.31
2022-12-12T16:25:46.741Z,143335.78
2022-12-12T16:28:23.225Z,143345.47
2022-12-12T16:30:53.989Z,143368.38
2022-12-12T16:33:24.024Z,143379.22
2022-12-12T16:35:50.852Z,143400.94
2022-12-12T16:38:18.137Z,143412.97
2022-12-12T16:40:46.384Z,143420.25
2022-12-12T16:43:14.309Z,143427.50
2022-12-12T16:45:41.646Z,143427.50
2022-12-12T16:48:23.142Z,143432.31
2022-12-12T16:50:51.689Z,143454.03
2022-12-12T16:53:18.952Z,143432.31
2022-12-12T16:55:47.172Z,143417.84
2022-12-12T16:58:14.078Z,143414.22
2022-12-12T17:00:41.038Z,143400.94
2022-12-12T17:03:08.237Z,143379.22
2022-12-12T17:05:35.229Z,143374.41
2022-12-12T17:08:02.638Z,143200.78
2022-12-12T17:10:31.471Z,143350.28
2022-12-12T17:12:58.387Z,143349.06
2022-12-12T17:15:29.610Z,143356.31
2022-12-12T17:17:56.749Z,143350.28
2022-12-12T17:20:24.321Z,143345.47
2022-12-12T17:22:52.046Z,143353.88
2022-12-12T17:25:19.488Z,143339.41
2022-12-12T17:27:46.305Z,143323.75
2022-12-12T17:30:13.806Z,143334.59
2022-12-12T17:32:40.948Z,143324.94
2022-12-12T17:35:08.557Z,143322.50
2022-12-12T17:37:37.464Z,143326.13
2022-12-12T17:40:06.444Z,143323.75
2022-12-12T17:42:33.341Z,143308.03
2022-12-12T17:45:00.150Z,143306.84
2022-12-12T17:47:26.970Z,143304.41
2022-12-12T17:49:53.792Z,143294.78
2022-12-12T17:52:20.615Z,143286.34
2022-12-12T17:55:54.014Z,143281.50
2022-12-12T17:57:35.196Z,143283.94
2022-12-12T18:00:02.104Z,143282.75
2022-12-12T18:02:39.874Z,143277.94
2022-12-12T18:05:09.285Z,143287.56
2022-12-12T18:07:36.532Z,143277.94
2022-12-12T18:10:04.200Z,143263.44
2022-12-12T18:12:31.096Z,143244.16
2022-12-12T18:14:57.988Z,143235.69
2022-12-12T18:17:24.809Z,143217.63
2022-12-12T18:19:51.609Z,143210.41
2022-12-12T18:22:18.495Z,143179.06
2022-12-12T18:24:45.294Z,143139.28
2022-12-12T18:27:12.212Z,143130.84
2022-12-12T18:29:39.138Z,143113.94
2022-12-12T18:32:06.108Z,143101.94
2022-12-12T18:34:32.995Z,143092.28
2022-12-12T18:36:59.880Z,143069.41
2022-12-12T18:39:26.813Z,143087.47
2022-12-12T18:41:53.798Z,143064.53
2022-12-12T18:44:20.754Z,143063.34
2022-12-12T18:46:49.041Z,143053.72
2022-12-12T18:49:18.144Z,143034.44
2022-12-12T18:51:45.751Z,143020.00
2022-12-12T18:54:15.679Z,142841.72
2022-12-12T18:56:44.118Z,143016.38
2022-12-12T18:59:11.235Z,142988.66
2022-12-12T19:01:38.616Z,142971.78
2022-12-12T19:04:12.159Z,142972.97
2022-12-12T19:06:40.080Z,142954.91
2022-12-12T19:09:08.243Z,142950.09
2022-12-12T19:11:35.696Z,142934.47
2022-12-12T19:14:02.902Z,142938.03
2022-12-12T19:16:29.836Z,142923.59
2022-12-12T19:18:59.005Z,142918.78
2022-12-12T19:21:27.473Z,142918.78
2022-12-12T19:23:54.629Z,142909.16
2022-12-12T19:26:26.834Z,142900.72
2022-12-12T19:28:57.447Z,142894.72
2022-12-12T19:31:24.546Z,142882.66
2022-12-12T19:33:52.043Z,142865.78
2022-12-12T19:36:20.750Z,142853.78
2022-12-12T19:38:48.095Z,142846.53
2022-12-12T19:41:15.740Z,142841.72
2022-12-12T19:43:43.665Z,142828.47
2022-12-12T19:46:15.426Z,142823.66
2022-12-12T19:48:42.681Z,142810.41
2022-12-12T19:51:13.371Z,142804.41
2022-12-12T19:53:41.114Z,142789.97
2022-12-12T19:56:08.290Z,142779.09
2022-12-12T19:58:38.716Z,142776.72
2022-12-12T20:01:07.228Z,142779.09
2022-12-12T20:03:34.178Z,142767.09
2022-12-12T20:06:02.511Z,142755.03
2022-12-12T20:08:30.645Z,142737.00
2022-12-12T20:11:07.997Z,142730.97
2022-12-12T20:13:35.404Z,142720.13
2022-12-12T20:16:06.796Z,142716.50
2022-12-12T20:18:33.813Z,142720.13
2022-12-12T20:21:03.497Z,142723.75
2022-12-12T20:23:31.101Z,142729.75
2022-12-12T20:25:57.910Z,142716.50
2022-12-12T20:28:24.835Z,142714.13
2022-12-12T20:31:01.829Z,142699.69
2022-12-12T20:33:28.673Z,142704.50
2022-12-12T20:35:59.727Z,142690.06
2022-12-12T20:38:26.722Z,142690.06
2022-12-12T20:40:53.538Z,142670.78
2022-12-12T20:43:20.346Z,142665.97
2022-12-12T20:45:47.230Z,142651.53
2022-12-12T20:48:14.046Z,142649.13
2022-12-12T20:50:41.590Z,142663.59
2022-12-12T20:53:08.405Z,142656.34
2022-12-12T20:55:36.022Z,142649.13
2022-12-12T20:58:02.947Z,142647.91
2022-12-12T21:00:30.244Z,142639.50
2022-12-12T21:02:57.242Z,142649.13
2022-12-12T21:05:24.234Z,142647.91
2022-12-12T21:07:51.129Z,142629.88
2022-12-12T21:10:17.968Z,142611.81
2022-12-12T21:12:44.851Z,142593.78
2022-12-12T21:15:11.739Z,142593.78
2022-12-12T21:17:38.633Z,142588.97
2022-12-12T21:20:06.819Z,142572.13
2022-12-12T21:22:33.993Z,142567.31
2022-12-12T21:25:00.814Z,142560.13
2022-12-12T21:27:27.642Z,142552.88
2022-12-12T21:29:54.503Z,142549.25
2022-12-12T21:32:21.292Z,142536.03
2022-12-12T21:34:48.238Z,142538.47
2022-12-12T21:37:15.167Z,142521.59
2022-12-12T21:39:44.304Z,142509.63
2022-12-12T21:42:11.118Z,142506.00
2022-12-12T21:44:44.035Z,142513.19
2022-12-12T21:47:12.463Z,142491.56
2022-12-12T21:49:39.347Z,142492.75
2022-12-12T21:52:09.921Z,142480.72
2022-12-12T21:54:36.751Z,142479.53
2022-12-12T21:57:04.005Z,142461.50
2022-12-12T21:59:30.886Z,142459.06
2022-12-12T22:01:58.634Z,142463.88
2022-12-12T22:04:25.855Z,142484.34
2022-12-12T22:06:52.731Z,142461.50
2022-12-12T22:09:19.615Z,142450.66
2022-12-12T22:11:46.819Z,142437.47
2022-12-12T22:14:17.037Z,142432.59
2022-12-12T22:16:43.886Z,142420.63
2022-12-12T22:19:11.916Z,142427.81
2022-12-12T22:21:38.756Z,142432.59
2022-12-12T22:24:05.893Z,142430.22
2022-12-12T22:26:38.067Z,142420.63
2022-12-12T22:29:07.000Z,142411.00
2022-12-12T22:31:34.943Z,142404.97
2022-12-12T22:34:03.585Z,142386.94
2022-12-12T22:36:31.779Z,142379.75
2022-12-12T22:38:59.094Z,142377.31
2022-12-12T22:41:26.736Z,142360.47
2022-12-12T22:43:54.992Z,142370.13
2022-12-12T22:46:22.665Z,142360.47
2022-12-12T22:48:49.575Z,142355.69
2022-12-12T22:51:18.169Z,142360.47
2022-12-12T22:53:45.140Z,142355.69
2022-12-12T22:56:12.606Z,142353.28
2022-12-12T22:58:40.179Z,142338.88
2022-12-12T23:01:07.150Z,142328.03
2022-12-12T23:03:34.432Z,142316.03
2022-12-12T23:06:05.446Z,142295.59
2022-12-12T23:08:32.326Z,142278.75
2022-12-12T23:11:09.921Z,142266.78
2022-12-12T23:13:37.560Z,142276.38
2022-12-12T23:16:08.212Z,142281.19
2022-12-12T23:18:36.622Z,142275.19
2022-12-12T23:21:05.135Z,142252.31
2022-12-12T23:23:33.949Z,142252.31
2022-12-12T23:26:04.585Z,142264.34
2022-12-12T23:28:31.434Z,142273.97
2022-12-12T23:30:58.567Z,142282.38
2022-12-12T23:33:26.052Z,142295.59
2022-12-12T23:35:53.406Z,142313.63
2022-12-12T23:38:20.427Z,142338.88
2022-12-12T23:40:47.276Z,142355.69
2022-12-12T23:43:14.129Z,142359.28
2022-12-12T23:45:41.026Z,142350.88
2022-12-12T23:48:08.298Z,142341.25
2022-12-12T23:50:35.391Z,142352.09
2022-12-12T23:53:06.261Z,142342.44
2022-12-12T23:55:37.244Z,142336.47
2022-12-12T23:58:04.084Z,142322.03
